Flight Track Log - Related Links

Times and Time Zones

All times are in EDT time to prevent confusion due to time zone crossing. See the SWA2436 flight status page for this flight to view local times or setup timezone preferences in your user account.

Time Position Orientation Groundspeed Altitude Reporting Facility
EDT Latitude Longitude Course Direction KTS MPH feet Rate Location/Type
Thu 10:49:18 PM 29.9989 -90.3011 280° West 157 181 1,700  Level Houston Center
Thu 10:50:14 PM 29.9753 -90.3692 248° West 240 276 4,800 4,205 Climbing Houston Center
Thu 10:51:15 PM 29.9483 -90.4444 248° West 246 283 9,900 3,563 Climbing Houston Center
Thu 10:52:22 PM 29.9214 -90.5364 251° West 282 325 12,400 3,047 Climbing Houston Center
Thu 10:53:23 PM 29.8922 -90.6389 252° West 330 380 16,400 3,689 Climbing Houston Center
Thu 10:54:24 PM 29.8553 -90.7389 247° West 337 388 19,900 3,000 Climbing Houston Center
Thu 10:55:25 PM 29.8256 -90.8481 253° West 357 411 22,500 2,754 Climbing Houston Center
Thu 10:56:26 PM 29.8094 -90.9661 261° West 371 427 25,500 2,705 Climbing Houston Center
Thu 10:57:27 PM 29.7942 -91.0864 262° West 379 436 28,000 2,390 Climbing Houston Center
Thu 10:58:29 PM 29.7758 -91.2086 260° West 386 444 30,400 2,439 Climbing Houston Center
Thu 10:59:30 PM 29.7586 -91.3308 261° West 386 444 33,000 2,262 Climbing Houston Center
Thu 11:00:31 PM 29.7414 -91.4528 261° West 385 443 35,000 2,016 Climbing Houston Center
Thu 11:01:32 PM 29.7233 -91.5728 260° West 381 438 37,100 1,475 Climbing Houston Center
Thu 11:02:33 PM 29.7036 -91.7144 261° West 377 434 38,000 344 Climbing Houston Center
Thu 11:03:34 PM 29.6889 -91.8139 260° West 376 433 37,800 -590 Descending Houston Center
Thu 11:04:35 PM 29.6717 -91.9325 261° West 376 433 36,800 -885 Descending Houston Center
Thu 11:05:36 PM 29.6508 -92.0739 260° West 373 429 36,000 -393 Descending Houston Center
Thu 11:06:37 PM 29.6322 -92.1908 260° West 371 427 36,000  Level Houston Center
Thu 11:07:38 PM 29.6150 -92.3081 260° West 373 429 36,000  Level Houston Center
Thu 11:08:39 PM 29.5975 -92.4256 260° West 374 430 36,000  Level Houston Center
Thu 11:09:40 PM 29.5794 -92.5425 260° West 372 428 36,000  Level Houston Center
Thu 11:10:41 PM 29.5625 -92.6592 261° West 371 427 36,000  Level Houston Center
Thu 11:11:42 PM 29.5442 -92.7772 260° West 373 429 36,000  Level Houston Center
Thu 11:12:43 PM 29.5256 -92.8950 260° West 375 432 36,000 -49 Level Houston Center
Thu 11:13:44 PM 29.5075 -93.0131 260° West 376 433 35,900 -541 Descending Houston Center
Thu 11:14:45 PM 29.4894 -93.1308 260° West 375 432 34,900 -984 Descending Houston Center
Thu 11:15:46 PM 29.4697 -93.2489 259° West 376 433 33,900 -984 Descending Houston Center
Thu 11:16:47 PM 29.4511 -93.3664 260° West 374 430 32,900 -1,475 Descending Houston Center
Thu 11:17:48 PM 29.4336 -93.4814 260° West 368 423 30,900 -1,967 Descending Houston Center
Thu 11:18:49 PM 29.4158 -93.5886 259° West 351 404 28,900 -2,164 Descending Houston Center
Thu 11:19:50 PM 29.3956 -93.7144 260° West 339 390 26,500 -2,115 Descending Houston Center
Thu 11:20:51 PM 29.3786 -93.8153 259° West 328 377 24,600 -1,860 Descending Houston Center
Thu 11:21:30 PM 29.3675 -93.8819 259° West 317 365 23,400 -1,574 Descending Houston Center
Thu 11:21:52 PM 29.3661 -93.8972 264° West 318 366 23,000 -1,800 Descending Houston Center
Thu 11:22:30 PM 29.3519 -93.9753 258° West 311 358 21,600 -2,500 Descending Houston Center
Thu 11:22:52 PM 29.3464 -94.0139 261° West 311 358 20,500 -1,672 Descending Houston Center
Thu 11:23:31 PM 29.3350 -94.0783 259° West 308 354 19,900 -1,082 Descending Houston Center
Thu 11:23:53 PM 29.3303 -94.1100 260° West 308 354 19,400 -1,574 Descending Houston Center
Thu 11:24:32 PM 29.3211 -94.1689 260° West 304 350 18,300 -1,967 Descending Houston Center
Thu 11:24:54 PM 29.3144 -94.2036 258° West 301 346 17,400 -2,066 Descending Houston Center
Thu 11:25:33 PM 29.3036 -94.2672 259° West 295 339 16,200 -1,770 Descending Houston Center
Thu 11:25:55 PM 29.2994 -94.2950 260° West 295 339 15,600 -1,770 Descending Houston Center
Thu 11:26:34 PM 29.2872 -94.3556 257° West 287 330 14,400 -1,770 Descending Houston Center
Thu 11:26:56 PM 29.2853 -94.3839 266° West 285 328 13,800 -1,818 Descending Houston Center
Thu 11:27:40 PM 29.2719 -94.4558 258° West 291 335 12,400 -1,672 Descending Houston Center
Thu 11:27:57 PM 29.2700 -94.4769 264° West 296 341 12,100 -1,082 Descending Houston Center
Thu 11:28:41 PM 29.2981 -94.5483 294° West 292 336 11,300 -984 Descending Houston Center
Thu 11:28:58 PM 29.3050 -94.5594 306° West 293 337 11,100 -984 Descending Houston Center
Thu 11:29:42 PM 29.3350 -94.6253 298° West 277 319 10,300 -984 Descending Houston Center
Thu 11:29:59 PM 29.3425 -94.6367 307° West 279 321 10,100 -295 Descending Houston Center
Thu 11:30:43 PM 29.3719 -94.7022 297° West 272 313 10,000 -100 Descending Houston Center
Thu 11:30:59 PM 29.3792 -94.7122 310° West 271 312 10,000  Level Houston Center
Thu 11:31:50 PM 29.4131 -94.7808 300° West 272 313 10,000 -679 Level Houston Center
Thu 11:32:45 PM 29.4447 -94.8489 298° West 261 300 8,800 -1,268 Descending Houston Center
Thu 11:33:01 PM 29.4525 -94.8611 306° West 267 307 8,500 -1,475 Descending Houston Center
Thu 11:33:46 PM 29.4836 -94.9258 299° West 253 291 7,300 -1,377 Descending Houston Center
Thu 11:34:02 PM 29.4875 -94.9311 310° West 255 293 7,100 -1,300 Descending Houston Center
Thu 11:34:46 PM 29.5139 -94.9989 294° West 260 299 6,000 -1,180 Descending Houston Center
Thu 11:35:03 PM 29.5147 -95.0047 279° West 260 299 5,900  Descending Houston Center
Thu 11:35:47 PM 29.5044 -95.0769 261° West 249 287 6,000  Climbing Houston Center
Thu 11:36:04 PM 29.5031 -95.0850 259° West 251 289 5,900  Descending Houston Center
Thu 11:36:48 PM 29.4944 -95.1500 261° West 221 254 6,000 98 Climbing Houston Center
Thu 11:37:05 PM 29.4925 -95.1572 253° West 227 261 6,000 -295 Level Houston Center
Thu 11:37:49 PM 29.4836 -95.2161 260° West 208 239 5,700 -400 Descending Houston Center
Thu 11:38:05 PM 29.4831 -95.2253 266° West 214 246 5,600 -984 Descending Houston Center
Thu 11:38:50 PM 29.4731 -95.2822 259° West 208 239 4,700 -1,082 Descending Houston Center
Thu 11:39:06 PM 29.4742 -95.2919 277° West 212 244 4,500 -1,082 Descending Houston Center
Thu 11:39:51 PM 29.4953 -95.3419 296° West 207 238 3,600 -984 Descending Houston Center
Thu 11:40:07 PM 29.5011 -95.3503 309° West 205 236 3,500 -885 Descending Houston Center
Thu 11:40:52 PM 29.5444 -95.3722 336° Northwest 180 207 2,700 -885 Descending Houston Center
Thu 11:41:08 PM 29.5483 -95.3722 360° North 185 213 2,600 -1,200 Descending Houston Center
Thu 11:41:52 PM 29.5861 -95.3456 32° Northeast 159 183 1,500 -1,180 Descending Houston Center
Thu 11:42:09 PM 29.5881 -95.3431 48° Northeast 173 199 1,400 -764 Descending Houston Center
Thu 11:42:47 PM 29.6106 -95.3161 46° Northeast 134 154 800 -787 Descending Houston Center
Thu 11:43:10 PM 29.6164 -95.3106 40° Northeast 157 181 600 -506 Descending Houston Center
Thu 11:44:10 PM 29.6439 -95.2789 45° Northeast 142 163 100 -500 Descending Houston Center

Login

Don't have an account? Register now (free) for customized features, flight alerts, and more!